Terminal Aerodrome Forecast
Issued by NWS Twin Cities, MN

Home | Current Version | Previous Version | Text Only | Print | Product List | Glossary Off
Versions: 1 2 3 4 5 6 7 8 9 10 11 12 13 14

890
FTUS43 KMPX 222333
TAFEAU
TAF
KEAU 222333Z 2300/2324 29009KT P6SM BKN060
     FM230600 36004KT P6SM VCSH BKN050
     FM231300 02008KT P6SM VCSH OVC035 PROB30 2316/2322 -SHRA
      BKN025=

USA.gov is the U.S. government's official web portal to all federal, state and local government web resources and services.